Time;durP1;ratioP1;P1;durP2;ratioP2;P2;SDS_P1;SDS_P2;PMS_P1;PMS_P2;Temp;Humidity;BMP_temperature;BMP_pressure;BME280_temperature;BME280_humidity;BME280_pressure;Samples;Min_cycle;Max_cycle;Signal;HPM_P1;HPM_P2
2024/03/02 00:02:50;;;;;;;113.67;80.30;;;8.10;99.90;10.80;96002.00;;;;4963844;28;20669;-65
2024/03/02 00:05:39;;;;;;;115.90;83.87;;;8.10;99.90;10.80;95996.00;;;;4968988;28;20199;-65
2024/03/02 00:08:28;;;;;;;114.33;81.10;;;8.10;99.90;10.80;95994.00;;;;4966298;28;20226;-65
2024/03/02 00:11:18;;;;;;;101.60;75.17;;;8.10;99.90;10.80;95988.00;;;;4964632;28;20207;-65
2024/03/02 00:14:08;;;;;;;107.77;78.00;;;8.00;99.90;10.90;95990.00;;;;4965287;28;20716;-65
2024/03/02 00:16:58;;;;;;;109.70;78.43;;;8.10;99.90;10.70;96001.00;;;;4986738;23;20288;-83
2024/03/02 00:19:47;;;;;;;118.93;86.43;;;8.10;99.90;10.30;95988.00;;;;5010325;28;20233;-84
2024/03/02 00:22:37;;;;;;;112.53;79.93;;;8.10;99.90;10.40;95996.00;;;;5013572;28;20595;-83
2024/03/02 00:25:26;;;;;;;106.13;77.47;;;8.00;99.90;10.60;96001.00;;;;5010003;28;20214;-83
2024/03/02 00:28:20;;;;;;;103.40;77.03;;;8.00;99.90;10.60;95997.00;;;;5012095;28;20225;-84
2024/03/02 00:31:12;;;;;;;86.23;70.07;;;8.00;99.90;10.50;96010.00;;;;5010889;28;20206;-83
2024/03/02 00:34:06;;;;;;;96.37;72.97;;;8.00;99.90;10.70;96018.00;;;;5008331;28;20213;-83
2024/03/02 00:36:59;;;;;;;97.07;73.23;;;8.00;99.90;10.70;96007.00;;;;5008958;28;20204;-83
2024/03/02 00:39:51;;;;;;;111.10;79.97;;;8.00;99.90;10.70;96006.00;;;;5006248;28;20210;-84
2024/03/02 00:42:40;;;;;;;110.27;80.93;;;8.00;99.90;10.70;96008.00;;;;5007249;28;20207;-83
2024/03/02 00:45:29;;;;;;;105.27;76.30;;;8.00;99.90;10.80;96015.00;;;;5010471;28;20206;-83
2024/03/02 00:48:19;;;;;;;107.10;77.10;;;8.00;99.90;10.80;96002.00;;;;5012984;28;20295;-83
2024/03/02 00:51:09;;;;;;;111.33;78.33;;;8.00;99.90;10.90;96010.00;;;;5010408;28;20217;-83
2024/03/02 00:54:03;;;;;;;109.30;77.40;;;8.10;99.90;11.00;96009.00;;;;5016019;28;20202;-83
2024/03/02 00:56:55;;;;;;;105.90;76.53;;;8.20;99.90;10.60;96009.00;;;;5014172;28;20209;-84
2024/03/02 00:59:43;;;;;;;116.27;83.60;;;8.10;99.90;10.80;96005.00;;;;5009166;28;20210;-83
2024/03/02 01:02:32;;;;;;;112.10;80.20;;;8.10;99.90;11.00;96016.00;;;;5006482;28;20206;-83
2024/03/02 01:05:22;;;;;;;113.00;78.83;;;8.20;99.90;11.00;96003.00;;;;5011754;28;20202;-83
2024/03/02 01:08:12;;;;;;;111.57;78.60;;;8.20;99.90;11.00;96012.00;;;;5010853;28;20235;-83
2024/03/02 01:11:00;;;;;;;113.03;79.83;;;8.20;99.90;11.00;96000.00;;;;5008441;28;20205;-84
2024/03/02 01:13:49;;;;;;;119.67;81.20;;;8.20;99.90;11.10;95999.00;;;;5011828;28;20214;-83
2024/03/02 01:16:38;;;;;;;116.57;82.43;;;8.20;99.90;10.80;95994.00;;;;5009410;28;20217;-83
2024/03/02 01:19:27;;;;;;;112.17;80.13;;;8.20;99.90;10.80;96007.00;;;;5004830;28;20230;-83
2024/03/02 01:22:23;;;;;;;105.63;76.60;;;8.20;99.90;10.90;96001.00;;;;5010154;28;20220;-83
2024/03/02 01:25:13;;;;;;;104.80;78.53;;;8.20;99.90;11.00;96004.00;;;;5006762;28;20280;-83
2024/03/02 01:28:02;;;;;;;114.33;81.87;;;8.20;99.90;10.90;96011.00;;;;5010256;28;20883;-83
2024/03/02 01:30:51;;;;;;;106.07;77.13;;;8.20;99.90;10.70;96011.00;;;;5012694;28;20210;-82
2024/03/02 01:33:40;;;;;;;119.97;85.40;;;8.20;99.90;10.80;96008.00;;;;5011656;28;20202;-83
2024/03/02 01:36:29;;;;;;;110.07;77.63;;;8.20;99.90;10.90;96004.00;;;;5012450;28;20210;-83
2024/03/02 01:39:19;;;;;;;113.07;79.93;;;8.20;99.90;10.90;96009.00;;;;5009148;28;20227;-82
2024/03/02 01:42:08;;;;;;;108.30;78.27;;;8.20;99.90;10.50;96012.00;;;;5012485;28;20766;-83
2024/03/02 01:44:57;;;;;;;117.63;83.23;;;8.10;99.90;10.80;96007.00;;;;5013608;28;20201;-82
2024/03/02 01:47:46;;;;;;;117.17;82.67;;;8.10;99.90;10.90;95993.00;;;;5012421;28;20279;-83
2024/03/02 01:50:35;;;;;;;123.70;85.87;;;8.10;99.90;10.90;95997.00;;;;5007657;28;20260;-83
2024/03/02 01:53:24;;;;;;;102.53;75.20;;;8.10;99.90;11.00;95993.00;;;;5010136;28;20198;-83
2024/03/02 01:56:14;;;;;;;106.40;76.77;;;8.20;99.90;10.70;95987.00;;;;5008124;28;20217;-83
2024/03/02 01:59:03;;;;;;;107.03;77.20;;;8.10;99.90;10.70;95996.00;;;;5007498;28;20234;-83
2024/03/02 02:01:52;;;;;;;106.23;77.57;;;8.10;99.90;10.70;95987.00;;;;5005101;28;20248;-83
2024/03/02 02:04:41;;;;;;;122.77;88.87;;;8.10;99.90;10.90;95982.00;;;;5002790;28;20209;-83
2024/03/02 02:07:30;;;;;;;108.80;78.83;;;8.10;99.90;10.90;95988.00;;;;5013680;28;20734;-83
2024/03/02 02:10:19;;;;;;;89.23;74.43;;;8.10;99.90;10.90;96000.00;;;;5010433;28;20201;-83
2024/03/02 02:13:09;;;;;;;92.97;71.40;;;8.20;99.90;10.90;95981.00;;;;5011877;28;20198;-83
2024/03/02 02:16:06;;;;;;;108.40;78.67;;;8.20;99.90;11.00;95980.00;;;;5008470;28;20206;-83
2024/03/02 02:18:55;;;;;;;106.17;77.03;;;8.20;99.90;11.00;95990.00;;;;5013056;28;20224;-83
2024/03/02 02:21:45;;;;;;;110.40;81.67;;;8.20;99.90;11.00;95988.00;;;;5009813;28;20230;-83
2024/03/02 02:24:34;;;;;;;113.20;81.80;;;8.20;99.90;11.00;95980.00;;;;5011704;28;20209;-83
2024/03/02 02:27:23;;;;;;;107.87;80.47;;;8.20;99.90;11.00;95980.00;;;;5016456;28;20240;-82
2024/03/02 02:30:13;;;;;;;113.07;82.97;;;8.20;99.90;11.00;95982.00;;;;5014712;28;20209;-82
2024/03/02 02:33:02;;;;;;;103.13;78.00;;;8.20;99.90;11.10;95974.00;;;;5012035;28;20199;-83
2024/03/02 02:35:51;;;;;;;103.97;77.50;;;8.20;99.90;11.00;95972.00;;;;5007524;28;20202;-82
2024/03/02 02:38:46;;;;;;;118.87;89.40;;;8.20;99.90;11.00;95966.00;;;;5013475;28;20225;-82
2024/03/02 02:41:35;;;;;;;102.83;79.20;;;8.20;99.90;11.10;95973.00;;;;5010889;28;20226;-83
2024/03/02 02:44:24;;;;;;;93.60;75.57;;;8.20;99.90;11.10;95964.00;;;;5013260;28;20214;-83
2024/03/02 02:47:13;;;;;;;105.17;80.27;;;8.30;99.90;11.10;95973.00;;;;5014930;28;20215;-82
2024/03/02 02:50:03;;;;;;;121.03;88.87;;;8.20;99.90;11.00;95964.00;;;;5010477;28;20209;-82
2024/03/02 02:52:52;;;;;;;97.77;75.27;;;8.20;99.90;11.00;95965.00;;;;5013101;28;20206;-82
2024/03/02 02:55:43;;;;;;;106.93;81.60;;;8.20;99.90;10.90;95971.00;;;;5009385;28;20210;-82
2024/03/02 02:58:32;;;;;;;110.67;81.77;;;8.20;99.90;10.90;95956.00;;;;5008360;28;20226;-82
2024/03/02 03:01:21;;;;;;;111.57;81.97;;;8.20;99.90;11.00;95960.00;;;;5011339;28;20595;-82
2024/03/02 03:04:09;;;;;;;102.93;79.70;;;8.20;99.90;11.00;95959.00;;;;5010826;28;20233;-82
2024/03/02 03:06:58;;;;;;;100.97;75.80;;;8.20;99.90;11.00;95957.00;;;;5011372;28;20246;-82
2024/03/02 03:09:47;;;;;;;103.80;78.27;;;8.20;99.90;11.00;95961.00;;;;5010395;28;20679;-83
2024/03/02 03:12:38;;;;;;;110.20;81.23;;;8.20;99.90;10.90;95961.00;;;;5009827;28;20202;-82
2024/03/02 03:15:27;;;;;;;96.60;75.45;;;8.20;99.90;10.90;95958.00;;;;5011406;28;20210;-82
2024/03/02 03:18:15;;;;;;;107.10;77.80;;;8.20;99.90;10.90;95964.00;;;;5010953;28;20323;-83
2024/03/02 03:21:05;;;;;;;105.63;78.53;;;8.20;99.90;11.00;95961.00;;;;5007354;28;20316;-83
2024/03/02 03:23:55;;;;;;;103.90;76.10;;;8.20;99.90;10.90;95961.00;;;;5011079;28;20209;-82
2024/03/02 03:26:44;;;;;;;110.40;83.13;;;8.20;99.90;11.00;95965.00;;;;5009930;28;20597;-82
2024/03/02 03:29:34;;;;;;;110.67;82.10;;;8.20;99.90;10.90;95963.00;;;;5007040;28;20646;-82
2024/03/02 03:32:23;;;;;;;103.27;76.23;;;8.20;99.90;10.90;95957.00;;;;5012480;28;20690;-82
2024/03/02 03:35:14;;;;;;;95.37;74.03;;;8.20;99.90;10.80;95965.00;;;;5016699;28;20213;-83
2024/03/02 03:38:03;;;;;;;99.80;76.77;;;8.20;99.90;10.90;95960.00;;;;5011849;28;20228;-83
2024/03/02 03:40:52;;;;;;;97.27;74.43;;;8.20;99.90;10.90;95952.00;;;;5012632;28;20587;-82
2024/03/02 03:43:41;;;;;;;111.63;81.73;;;8.20;99.90;10.80;95954.00;;;;5011058;28;20206;-82
2024/03/02 03:46:31;;;;;;;100.97;78.03;;;8.20;99.90;10.70;95950.00;;;;5011018;28;20221;-82
2024/03/02 03:49:20;;;;;;;106.97;78.87;;;8.10;99.90;10.70;95950.00;;;;5006744;28;20232;-83
2024/03/02 03:52:09;;;;;;;95.00;72.80;;;8.10;99.90;10.80;95939.00;;;;5011157;28;20453;-82
2024/03/02 03:54:58;;;;;;;111.47;84.17;;;8.10;99.90;10.90;95951.00;;;;5013812;28;20220;-82
2024/03/02 03:57:47;;;;;;;113.47;81.50;;;8.10;99.90;10.80;95956.00;;;;5013202;28;20229;-82
2024/03/02 04:00:36;;;;;;;109.53;81.27;;;8.10;99.90;10.80;95949.00;;;;5009093;28;20206;-83
2024/03/02 04:03:26;;;;;;;106.57;78.03;;;8.10;99.90;10.90;95952.00;;;;5011437;28;20237;-83
2024/03/02 04:06:17;;;;;;;106.97;78.13;;;8.10;99.90;10.90;95952.00;;;;5011992;28;20595;-81
2024/03/02 04:09:06;;;;;;;106.63;79.83;;;8.10;99.90;10.90;95948.00;;;;5010595;28;20237;-82
2024/03/02 04:11:55;;;;;;;110.03;79.87;;;8.10;99.90;10.90;95955.00;;;;5012473;28;21040;-83
2024/03/02 04:14:44;;;;;;;128.13;91.57;;;8.10;99.90;10.80;95951.00;;;;5008911;28;20229;-82
2024/03/02 04:17:35;;;;;;;103.90;76.73;;;8.10;99.90;10.80;95953.00;;;;5008798;28;20725;-82
2024/03/02 04:20:25;;;;;;;113.10;80.03;;;8.10;99.90;10.80;95953.00;;;;5011043;28;20573;-82
2024/03/02 04:23:14;;;;;;;110.63;78.60;;;8.10;99.90;10.80;95965.00;;;;5012608;28;20233;-83
2024/03/02 04:26:04;;;;;;;109.90;79.80;;;8.10;99.90;10.80;95952.00;;;;5010695;28;20221;-82
2024/03/02 04:28:53;;;;;;;118.20;82.63;;;8.10;99.90;10.90;95964.00;;;;5008482;28;20229;-82
2024/03/02 04:31:42;;;;;;;125.33;85.17;;;8.10;99.90;10.80;95952.00;;;;5008928;28;20206;-83
2024/03/02 04:34:31;;;;;;;120.33;83.10;;;8.10;99.90;10.70;95951.00;;;;5006188;28;20834;-82
2024/03/02 04:37:21;;;;;;;120.30;82.20;;;8.00;99.90;10.70;95954.00;;;;5007807;28;20575;-83
2024/03/02 04:40:11;;;;;;;129.13;85.37;;;8.00;99.90;10.60;95965.00;;;;5006223;28;20216;-82
2024/03/02 04:43:00;;;;;;;115.37;80.93;;;8.00;99.90;10.60;95974.00;;;;5009896;28;20222;-83
2024/03/02 04:45:49;;;;;;;112.33;78.87;;;7.90;99.90;10.50;95979.00;;;;5008529;28;20202;-82
2024/03/02 04:48:38;;;;;;;119.83;83.13;;;7.90;99.90;10.50;95978.00;;;;5006706;28;20632;-83
2024/03/02 04:51:27;;;;;;;111.33;78.30;;;7.80;99.90;10.50;95976.00;;;;5010564;28;20284;-83
2024/03/02 04:54:17;;;;;;;109.13;76.63;;;7.80;99.90;10.50;95996.00;;;;5010560;28;20212;-82
2024/03/02 04:57:06;;;;;;;111.00;78.97;;;7.80;99.90;10.30;95990.00;;;;5008437;28;20233;-83
2024/03/02 04:59:56;;;;;;;104.47;79.60;;;7.80;99.90;10.30;95999.00;;;;5011825;28;20210;-83
2024/03/02 05:02:45;;;;;;;115.53;80.33;;;7.80;99.90;10.40;96002.00;;;;5009755;28;20228;-82
2024/03/02 05:05:35;;;;;;;109.37;75.70;;;7.70;99.90;10.40;95995.00;;;;5006782;28;20210;-81
2024/03/02 05:08:24;;;;;;;115.27;78.83;;;7.70;99.90;10.40;95998.00;;;;5011445;28;20249;-83
2024/03/02 05:11:46;;;;;;;123.00;81.30;;;7.70;99.90;10.40;95999.00;;;;5010024;28;20210;-82
2024/03/02 05:14:34;;;;;;;113.70;76.43;;;7.70;99.90;10.30;96003.00;;;;5008807;28;20735;-82
2024/03/02 05:17:23;;;;;;;119.83;79.87;;;7.60;99.90;10.30;96008.00;;;;5011685;28;20297;-82
2024/03/02 05:20:12;;;;;;;122.43;82.03;;;7.60;99.90;10.20;96010.00;;;;5003231;28;20199;-82
2024/03/02 05:23:01;;;;;;;113.30;77.43;;;7.60;99.90;10.30;96004.00;;;;5011274;28;20264;-82
2024/03/02 05:25:50;;;;;;;125.90;84.90;;;7.60;99.90;10.20;96007.00;;;;5008967;28;20679;-82
2024/03/02 05:28:40;;;;;;;131.60;86.57;;;7.60;99.90;10.30;96004.00;;;;5040487;22;20271;-73
2024/03/02 05:31:29;;;;;;;114.90;77.73;;;7.60;99.90;10.30;96000.00;;;;5038740;28;20193;-72
2024/03/02 05:34:18;;;;;;;118.83;78.23;;;7.60;99.90;10.30;96006.00;;;;5046392;28;20204;-73
2024/03/02 05:37:07;;;;;;;115.20;77.10;;;7.60;99.90;10.20;96009.00;;;;5042454;28;20239;-72
2024/03/02 05:39:56;;;;;;;116.13;77.27;;;7.50;99.90;10.30;95999.00;;;;5025980;28;20201;-72
2024/03/02 05:42:45;;;;;;;116.97;78.73;;;7.60;99.90;10.30;96004.00;;;;5036524;28;20255;-71
2024/03/02 05:45:36;;;;;;;116.30;79.23;;;7.60;99.90;10.30;96003.00;;;;5029175;28;20205;-73
2024/03/02 05:48:25;;;;;;;111.00;75.10;;;7.60;99.90;10.20;96007.00;;;;5026698;28;20221;-71
2024/03/02 05:51:14;;;;;;;116.20;77.83;;;7.60;99.90;10.20;96002.00;;;;5023587;28;20209;-72
2024/03/02 05:54:03;;;;;;;114.87;77.87;;;7.50;99.90;10.00;96016.00;;;;5023074;28;20198;-71
2024/03/02 05:56:52;;;;;;;133.27;85.53;;;7.50;99.90;10.00;96012.00;;;;5024403;28;20233;-71
2024/03/02 05:59:41;;;;;;;130.93;86.63;;;7.50;99.90;10.00;96017.00;;;;5024180;28;20209;-72
2024/03/02 06:02:31;;;;;;;118.93;78.17;;;7.50;99.90;10.00;96027.00;;;;5023527;28;20233;-72
2024/03/02 06:05:20;;;;;;;111.40;76.27;;;7.50;99.90;10.10;96025.00;;;;5026907;28;20205;-72
2024/03/02 06:08:08;;;;;;;115.00;76.00;;;7.40;99.90;10.00;96024.00;;;;5027059;28;20229;-71
2024/03/02 06:10:58;;;;;;;122.27;79.90;;;7.40;99.90;9.90;96036.00;;;;5018898;28;20690;-71
2024/03/02 06:13:47;;;;;;;123.13;81.23;;;7.40;99.90;9.60;96026.00;;;;5025545;28;20228;-71
2024/03/02 06:16:36;;;;;;;120.07;80.33;;;7.30;99.90;9.50;96037.00;;;;5023995;28;20233;-71
2024/03/02 06:19:27;;;;;;;106.97;74.17;;;7.30;99.90;9.80;96033.00;;;;5025744;28;20206;-71
2024/03/02 06:22:16;;;;;;;111.47;75.33;;;7.30;99.90;9.70;96037.00;;;;5027306;28;20206;-72
2024/03/02 06:25:06;;;;;;;113.23;75.23;;;7.20;99.90;9.80;96042.00;;;;5034497;22;20249;-68
2024/03/02 06:27:54;;;;;;;109.17;73.93;;;7.20;99.90;9.90;96042.00;;;;5025756;28;20216;-68
2024/03/02 06:30:43;;;;;;;124.10;83.53;;;7.20;99.90;9.90;96038.00;;;;5024391;28;20213;-68
2024/03/02 06:33:32;;;;;;;107.30;72.80;;;7.30;99.90;9.90;96046.00;;;;5027823;28;20314;-69
2024/03/02 06:36:23;;;;;;;124.97;82.40;;;7.30;99.90;9.90;96046.00;;;;5008575;28;20214;-69
2024/03/02 06:39:12;;;;;;;117.73;77.80;;;7.30;99.90;10.00;96046.00;;;;5014820;28;20206;-69
2024/03/02 06:42:01;;;;;;;108.23;75.60;;;7.30;99.90;10.00;96059.00;;;;5016492;28;20209;-68
2024/03/02 06:44:50;;;;;;;133.37;86.60;;;7.30;99.90;10.00;96060.00;;;;5007103;28;20248;-69
2024/03/02 06:47:39;;;;;;;126.73;81.23;;;7.30;99.90;10.00;96065.00;;;;4987013;28;20212;-69
2024/03/02 06:50:28;;;;;;;184.53;120.57;;;7.40;99.90;10.00;96058.00;;;;4993442;28;22154;-69
2024/03/02 06:53:19;;;;;;;206.73;143.07;;;7.30;99.90;10.00;96057.00;;;;4969632;28;20206;-69
2024/03/02 06:56:09;;;;;;;171.87;118.53;;;7.30;99.90;10.00;96068.00;;;;4972694;28;20697;-68
2024/03/02 06:58:58;;;;;;;194.00;130.50;;;7.40;99.90;10.10;96054.00;;;;4975949;28;20619;-69
2024/03/02 07:01:48;;;;;;;161.20;108.00;;;7.40;99.90;10.20;96065.00;;;;4959962;28;20675;-68
2024/03/02 07:04:36;;;;;;;223.67;148.43;;;7.40;99.90;9.80;96060.00;;;;4968831;28;20730;-69
2024/03/02 07:07:25;;;;;;;149.30;95.13;;;7.40;99.90;9.70;96055.00;;;;4962047;28;20699;-68
2024/03/02 07:10:16;;;;;;;130.80;86.47;;;7.30;99.90;9.80;96054.00;;;;5014429;28;20282;-69
2024/03/02 07:13:05;;;;;;;110.90;74.37;;;7.40;99.90;10.20;96052.00;;;;5017721;28;20220;-69
2024/03/02 07:16:22;;;;;;;86.73;71.53;;;7.40;99.90;10.40;96050.00;;;;5021966;28;20212;-69
2024/03/02 07:19:11;;;;;;;86.50;69.07;;;7.50;99.90;10.30;96054.00;;;;5011750;28;20248;-69
2024/03/02 07:22:00;;;;;;;90.53;69.77;;;7.60;99.90;10.40;96052.00;;;;5017527;28;20256;-69
2024/03/02 07:24:49;;;;;;;252.63;173.40;;;7.60;99.90;10.30;96048.00;;;;5000834;28;20229;-69
2024/03/02 07:27:39;;;;;;;201.43;136.27;;;7.70;99.90;10.30;96046.00;;;;4974617;28;20209;-69
2024/03/02 07:30:28;;;;;;;196.10;133.43;;;7.70;99.90;9.80;96034.00;;;;4972700;28;20201;-68
2024/03/02 07:33:18;;;;;;;180.67;121.00;;;7.70;99.90;9.40;96037.00;;;;4975404;28;20266;-69
2024/03/02 07:36:08;;;;;;;190.37;131.17;;;7.60;99.90;9.90;96039.00;;;;4971691;28;20722;-67
2024/03/02 07:38:57;;;;;;;186.30;126.40;;;7.60;99.90;10.20;96041.00;;;;4977411;28;20213;-68
2024/03/02 07:41:47;;;;;;;145.50;105.27;;;7.70;99.90;10.20;96028.00;;;;4977499;28;20690;-67
2024/03/02 07:44:38;;;;;;;229.07;153.37;;;7.80;99.90;10.40;96032.00;;;;4970912;28;20263;-68
2024/03/02 07:47:28;;;;;;;218.63;157.03;;;7.80;99.90;10.40;96027.00;;;;4959078;28;20263;-67
2024/03/02 07:50:17;;;;;;;232.67;157.13;;;7.90;99.90;10.40;96020.00;;;;4967925;28;20213;-67
2024/03/02 07:53:08;;;;;;;155.80;105.73;;;8.00;99.90;10.70;96034.00;;;;4958990;28;20552;-67
2024/03/02 07:56:02;;;;;;;236.10;159.67;;;8.10;99.90;10.90;96034.00;;;;4964357;28;20225;-68
2024/03/02 07:58:51;;;;;;;213.67;143.07;;;8.30;99.90;11.00;96034.00;;;;4972242;28;20360;-68
2024/03/02 08:01:42;;;;;;;252.47;169.30;;;8.40;99.90;11.20;96048.00;;;;4962708;28;20300;-68
2024/03/02 08:04:31;;;;;;;238.43;163.30;;;8.50;99.90;11.60;96027.00;;;;4962680;28;20302;-69
2024/03/02 08:07:19;;;;;;;265.17;174.50;;;8.70;99.90;11.40;96022.00;;;;4963898;28;20285;-69
2024/03/02 08:10:10;;;;;;;259.00;176.27;;;8.80;99.90;11.50;96023.00;;;;4958185;28;20210;-67
2024/03/02 08:12:59;;;;;;;228.77;154.27;;;8.90;99.90;11.50;96018.00;;;;4960134;28;20222;-68
2024/03/02 08:15:48;;;;;;;227.60;154.80;;;9.00;99.90;11.60;96014.00;;;;4958032;28;20711;-69
2024/03/02 08:18:38;;;;;;;255.43;172.87;;;9.10;99.90;12.10;96021.00;;;;4961648;28;20209;-67
2024/03/02 08:21:30;;;;;;;199.73;136.00;;;9.20;99.90;12.70;96018.00;;;;4959640;28;20752;-68
2024/03/02 08:24:19;;;;;;;252.87;176.10;;;9.50;99.90;12.30;96008.00;;;;4967325;28;20311;-68
2024/03/02 08:27:09;;;;;;;197.80;145.67;;;9.60;99.90;12.40;96007.00;;;;4965520;28;20814;-67
2024/03/02 08:29:58;;;;;;;243.03;167.13;;;9.70;99.90;13.00;96021.00;;;;4970601;28;20571;-69
2024/03/02 08:32:47;;;;;;;177.97;132.07;;;9.80;99.90;13.20;96024.00;;;;4961948;28;20205;-69
2024/03/02 08:35:39;;;;;;;202.43;147.13;;;10.10;99.90;13.50;96023.00;;;;4973072;28;20229;-68
2024/03/02 08:38:28;;;;;;;203.87;151.43;;;10.20;99.90;13.60;96017.00;;;;4966858;28;20231;-69
2024/03/02 08:41:17;;;;;;;227.07;162.53;;;10.40;99.90;13.00;96011.00;;;;4967207;28;20206;-69
2024/03/02 08:44:06;;;;;;;168.80;123.53;;;10.50;99.90;12.40;96008.00;;;;4960601;28;20619;-68
2024/03/02 08:46:55;;;;;;;225.97;160.90;;;10.40;99.90;12.30;96005.00;;;;4978210;28;20205;-69
2024/03/02 08:49:44;;;;;;;228.33;171.37;;;10.20;99.90;12.70;96003.00;;;;4973021;28;20214;-69
2024/03/02 08:52:34;;;;;;;234.47;168.27;;;10.40;99.90;12.30;96004.00;;;;4973070;28;20599;-69
2024/03/02 08:55:23;;;;;;;135.60;103.67;;;10.30;99.90;12.90;96025.00;;;;5005500;28;20267;-69
2024/03/02 08:58:12;;;;;;;220.37;163.30;;;10.40;99.90;12.50;96002.00;;;;5000078;28;20562;-70
2024/03/02 09:01:01;;;;;;;206.90;149.47;;;10.30;99.90;13.50;96009.00;;;;4976559;28;20214;-69
2024/03/02 09:03:50;;;;;;;149.10;110.20;;;10.50;99.90;14.00;96006.00;;;;4980651;28;20519;-69
2024/03/02 09:06:39;;;;;;;136.73;103.93;;;10.70;99.90;13.80;96001.00;;;;5005655;28;20205;-69
2024/03/02 09:09:31;;;;;;;142.37;111.90;;;10.90;99.90;14.70;96008.00;;;;5015939;28;20210;-69
2024/03/02 09:12:21;;;;;;;229.73;169.53;;;11.20;99.90;14.90;96011.00;;;;4992306;28;20209;-69
2024/03/02 09:15:10;;;;;;;217.83;164.50;;;11.40;99.90;15.10;96007.00;;;;4971558;28;20664;-68
2024/03/02 09:17:59;;;;;;;245.03;179.63;;;11.70;99.90;15.20;96006.00;;;;4974157;28;20212;-68
2024/03/02 09:20:48;;;;;;;193.70;148.83;;;11.80;99.90;15.20;96012.00;;;;4964856;28;20255;-68
2024/03/02 09:23:37;;;;;;;224.73;170.13;;;12.10;99.90;15.40;96017.00;;;;4975027;28;20210;-66
2024/03/02 09:26:28;;;;;;;180.67;138.13;;;12.10;99.90;15.10;96010.00;;;;4972707;28;22233;-66
2024/03/02 09:29:16;;;;;;;262.83;198.07;;;12.20;99.90;16.00;96012.00;;;;4973332;28;20218;-69
2024/03/02 09:32:07;;;;;;;225.53;165.93;;;12.40;99.90;15.20;96010.00;;;;4974957;28;21893;-68
2024/03/02 09:34:58;;;;;;;282.33;212.53;;;12.50;99.90;15.80;96016.00;;;;4974656;28;20226;-68
2024/03/02 09:37:47;;;;;;;215.63;158.10;;;12.60;99.90;15.80;96000.00;;;;4976316;28;20314;-67
2024/03/02 09:40:36;;;;;;;257.90;194.60;;;12.60;99.90;16.20;96001.00;;;;4972692;28;20212;-68
2024/03/02 09:43:26;;;;;;;254.17;189.83;;;12.80;99.90;16.20;96022.00;;;;4974839;28;22101;-67
2024/03/02 09:46:16;;;;;;;205.23;160.83;;;12.80;99.90;15.50;96016.00;;;;4997197;28;20910;-68
2024/03/02 09:49:05;;;;;;;270.43;206.70;;;12.80;99.90;15.10;96005.00;;;;5002808;28;20606;-67
2024/03/02 09:51:54;;;;;;;267.03;202.70;;;12.80;99.90;14.60;96009.00;;;;5001055;28;20208;-67
2024/03/02 09:54:44;;;;;;;287.80;221.03;;;12.60;99.90;14.70;96009.00;;;;4964359;28;20324;-67
2024/03/02 09:57:33;;;;;;;204.13;162.70;;;12.40;99.90;15.50;96004.00;;;;4973248;28;20209;-67
2024/03/02 10:00:24;;;;;;;253.87;194.07;;;12.50;99.90;16.20;96006.00;;;;4976125;28;20694;-67
2024/03/02 10:03:14;;;;;;;240.30;182.30;;;12.70;99.90;16.60;95999.00;;;;4969309;28;20285;-68
2024/03/02 10:06:24;;;;;;;199.40;155.20;;;12.90;99.90;15.60;95986.00;;;;4981732;28;20226;-68
2024/03/02 10:09:27;;;;;;;259.23;198.17;;;13.00;99.90;16.70;96006.00;;;;4978832;28;20266;-69
2024/03/02 10:12:18;;;;;;;215.27;172.47;;;13.20;99.90;16.70;96002.00;;;;4983500;28;20213;-69
2024/03/02 10:15:09;;;;;;;246.73;194.27;;;13.40;99.90;16.90;95998.00;;;;4982923;28;21171;-68
2024/03/02 10:18:00;;;;;;;280.10;216.90;;;13.50;99.90;16.90;96009.00;;;;4974370;28;20848;-69
2024/03/02 10:20:49;;;;;;;276.80;215.83;;;13.70;99.90;16.50;96009.00;;;;4977996;28;20757;-68
2024/03/02 10:23:38;;;;;;;258.23;195.87;;;13.60;99.90;16.50;96001.00;;;;4979922;28;20217;-68
2024/03/02 10:26:27;;;;;;;278.43;221.27;;;13.60;99.90;16.60;96016.00;;;;4971823;28;20232;-68
2024/03/02 10:29:17;;;;;;;255.80;198.17;;;13.60;99.90;16.30;96005.00;;;;4979879;28;20213;-68
2024/03/02 10:32:06;;;;;;;227.30;184.10;;;13.50;99.90;16.70;96004.00;;;;4980845;28;20213;-68
2024/03/02 10:34:57;;;;;;;295.00;229.60;;;13.50;99.90;16.90;96010.00;;;;4976302;28;20228;-67
2024/03/02 10:37:46;;;;;;;273.77;217.73;;;13.60;99.90;16.80;96019.00;;;;4969267;28;20705;-68
2024/03/02 10:40:35;;;;;;;294.97;227.47;;;13.70;99.90;16.90;96015.00;;;;4979252;28;20228;-68
2024/03/02 10:43:26;;;;;;;275.80;218.93;;;13.70;99.90;17.10;95994.00;;;;4973913;28;20213;-68
2024/03/02 10:46:17;;;;;;;203.50;163.63;;;13.80;99.90;17.30;96013.00;;;;5013941;28;20237;-68
2024/03/02 10:49:08;;;;;;;213.97;165.63;;;14.00;99.90;17.60;96016.00;;;;5012614;28;20212;-68
2024/03/02 10:51:59;;;;;;;231.53;182.83;;;14.20;99.90;16.80;96008.00;;;;5013581;28;20235;-68
2024/03/02 10:54:47;;;;;;;238.40;192.23;;;14.30;99.90;16.50;96008.00;;;;5013445;28;20244;-68
2024/03/02 10:57:44;;;;;;;216.90;180.23;;;14.10;99.90;16.70;96010.00;;;;5014471;28;20217;-68
2024/03/02 11:00:35;;;;;;;209.10;177.17;;;14.00;99.90;17.10;95996.00;;;;5008900;28;20201;-69
2024/03/02 11:03:24;;;;;;;194.67;170.00;;;14.10;99.90;17.70;95992.00;;;;5014287;28;20202;-69
2024/03/02 11:06:15;;;;;;;216.03;180.87;;;14.20;99.90;17.90;96009.00;;;;5014555;28;20321;-69
2024/03/02 11:09:09;;;;;;;237.90;195.10;;;14.40;99.90;18.00;96006.00;;;;5009267;28;20225;-68
2024/03/02 11:12:05;;;;;;;240.93;199.77;;;14.60;99.90;18.50;95973.00;;;;5015639;28;20193;-69
2024/03/02 11:14:55;;;;;;;263.53;209.97;;;14.80;99.90;19.40;95967.00;;;;5014360;28;20612;-69
2024/03/02 11:17:47;;;;;;;271.30;219.67;;;15.30;99.90;20.20;95960.00;;;;5004243;28;20202;-69
2024/03/02 11:20:40;;;;;;;282.13;229.50;;;15.90;99.90;20.50;95973.00;;;;5014491;28;20840;-69
2024/03/02 11:23:34;;;;;;;293.30;246.23;;;16.50;99.90;20.60;95966.00;;;;5008947;28;20204;-69
2024/03/02 11:26:25;;;;;;;315.93;263.33;;;16.90;99.90;21.20;95957.00;;;;4985065;28;20230;-69
2024/03/02 11:29:47;;;;;;;317.97;274.97;;;17.40;99.90;20.80;95950.00;;;;5013150;28;20221;-69
2024/03/02 11:32:36;;;;;;;377.90;326.00;;;17.60;99.90;20.20;95947.00;;;;4978766;28;20206;-69
2024/03/02 11:35:28;;;;;;;431.87;376.67;;;17.80;99.90;21.30;95949.00;;;;4964888;28;20225;-69
2024/03/02 11:38:17;;;;;;;427.07;380.80;;;18.00;99.90;19.20;95930.00;;;;4954030;28;20710;-69
2024/03/02 11:41:09;;;;;;;455.97;405.60;;;18.00;99.50;18.10;95924.00;;;;4963476;28;20206;-68
2024/03/02 11:44:01;;;;;;;436.77;389.10;;;17.50;99.40;19.90;95942.00;;;;4965394;28;20269;-69
2024/03/02 11:46:59;;;;;;;436.30;388.47;;;17.50;99.90;18.80;95963.00;;;;4966408;28;20217;-68
2024/03/02 11:49:52;;;;;;;430.13;382.73;;;17.30;97.90;18.30;95921.00;;;;4964662;28;20710;-68
2024/03/02 11:52:44;;;;;;;420.93;372.30;;;16.90;98.60;20.80;95936.00;;;;4965281;28;20982;-69
2024/03/02 11:55:36;;;;;;;353.47;314.93;;;17.20;99.40;20.90;95927.00;;;;4961917;28;21037;-68
2024/03/02 11:58:26;;;;;;;387.37;345.40;;;17.40;98.30;19.70;95973.00;;;;4982562;28;20209;-69
2024/03/02 12:01:17;;;;;;;426.23;380.37;;;17.50;97.60;18.10;95972.00;;;;4970022;28;20241;-68
2024/03/02 12:04:08;;;;;;;404.03;362.03;;;17.10;96.90;17.00;95908.00;;;;4962329;28;20371;-68
2024/03/02 12:06:59;;;;;;;336.63;301.50;;;16.50;97.20;20.00;95916.00;;;;4991049;28;20237;-68
2024/03/02 12:09:48;;;;;;;329.93;295.23;;;16.60;97.90;21.10;95916.00;;;;5013498;28;20757;-68
2024/03/02 12:12:37;;;;;;;322.87;289.67;;;17.10;98.20;17.80;95897.00;;;;5001704;28;20198;-68
2024/03/02 12:15:27;;;;;;;323.83;290.57;;;16.90;96.50;19.50;95910.00;;;;5015817;28;20236;-68